KDTL/DTL METAR and TAF weather

Enter ICAO airport designator
Station Type Date Time Source
KDTL METAR 2020/09/18 19:15 UTC NOAA

KDTL 181915Z AUTO 19011KT 10SM 16/04 A3033 RMK AO2


Station Type Date Time Source
KDTL Decoded METAR 2020/09/18 19:15 UTC NOAA

Detroit Lakes, Detroit Lakes Airport-Wething Field, MN, United States (KDTL) 46-50N 095-53W
Sep 18, 2020 - 03:15 PM EDT / 2020.09.18 1915 UTC
Wind: from the S (190 degrees) at 13 MPH (11 KT):0
Visibility: 10 mile(s):0
Temperature: 60 F (16 C)
Dew Point: 39 F (4 C)
Relative Humidity: 44%
Pressure (altimeter): 30.33 in. Hg (1027 hPa)
ob: KDTL 181915Z AUTO 19011KT 10SM 16/04 A3033 RMK AO2
cycle: 19

Station Type Date Time Source
KDTL TAF UTC NOAA

Error!

Example: see airport list